createdAt,value
2022-10-05T00:01:12.727Z,0
2022-10-05T00:02:29.036Z,0
2022-10-05T00:03:44.349Z,0
2022-10-05T00:05:00.638Z,0
2022-10-05T00:06:15.943Z,0
2022-10-05T00:07:32.250Z,0
2022-10-05T00:08:48.532Z,0
2022-10-05T00:10:04.824Z,0
2022-10-05T00:11:21.129Z,0
2022-10-05T00:13:53.720Z,0
2022-10-05T00:15:10.018Z,0
2022-10-05T00:16:26.298Z,0
2022-10-05T00:17:42.588Z,0
2022-10-05T00:18:58.890Z,0
2022-10-05T00:20:15.178Z,0
2022-10-05T00:21:31.471Z,0
2022-10-05T00:22:46.785Z,0
2022-10-05T00:24:03.074Z,0
2022-10-05T00:25:19.000Z,0
2022-10-05T00:27:51.961Z,0
2022-10-05T00:29:07.274Z,0
2022-10-05T00:30:22.579Z,0
2022-10-05T00:31:38.883Z,0
2022-10-05T00:32:55.178Z,0
2022-10-05T00:34:11.469Z,0
2022-10-05T00:35:27.772Z,0
2022-10-05T00:36:44.051Z,0
2022-10-05T00:38:00.351Z,0
2022-10-05T00:39:16.642Z,0
2022-10-05T00:40:32.947Z,0
2022-10-05T00:41:49.234Z,0
2022-10-05T00:43:05.527Z,0
2022-10-05T00:44:20.838Z,0
2022-10-05T00:45:37.135Z,0
2022-10-05T00:46:52.445Z,0
2022-10-05T00:49:25.039Z,0
2022-10-05T00:50:41.332Z,0
2022-10-05T00:51:57.636Z,0
2022-10-05T00:53:13.924Z,0
2022-10-05T00:54:30.213Z,0
2022-10-05T00:55:46.509Z,0
2022-10-05T00:57:02.810Z,0
2022-10-05T00:58:19.093Z,0
2022-10-05T00:59:35.397Z,0
2022-10-05T01:00:51.694Z,0
2022-10-05T01:02:07.983Z,0
2022-10-05T01:03:24.274Z,0
2022-10-05T01:04:39.591Z,0
2022-10-05T01:05:55.881Z,0
2022-10-05T01:07:12.189Z,0
2022-10-05T01:09:44.766Z,0
2022-10-05T01:11:00.085Z,0
2022-10-05T01:12:15.387Z,0
2022-10-05T01:13:31.690Z,0
2022-10-05T01:14:47.974Z,0
2022-10-05T01:16:04.278Z,0
2022-10-05T01:17:20.573Z,0
2022-10-05T01:18:36.856Z,0
2022-10-05T01:19:53.151Z,0
2022-10-05T01:21:09.452Z,0
2022-10-05T01:22:25.753Z,0
2022-10-05T01:23:42.052Z,0
2022-10-05T01:26:13.649Z,0
2022-10-05T01:27:28.958Z,0
2022-10-05T01:28:45.263Z,0
2022-10-05T01:30:01.549Z,0
2022-10-05T01:31:17.854Z,0
2022-10-05T01:32:34.133Z,0
2022-10-05T01:33:50.440Z,0
2022-10-05T01:35:06.722Z,0
2022-10-05T01:36:23.019Z,0
2022-10-05T01:37:39.308Z,0
2022-10-05T01:38:54.633Z,0
2022-10-05T01:40:09.944Z,0
2022-10-05T01:43:58.840Z,0
2022-10-05T01:45:15.120Z,0
2022-10-05T01:47:47.716Z,0
2022-10-05T01:49:03.992Z,0
2022-10-05T01:50:20.305Z,0
2022-10-05T01:51:36.584Z,0
2022-10-05T01:52:52.877Z,0
2022-10-05T01:54:09.176Z,0
2022-10-05T01:55:25.465Z,0
2022-10-05T01:56:40.790Z,0
2022-10-05T01:57:56.095Z,0
2022-10-05T01:59:12.396Z,0
2022-10-05T02:00:28.697Z,0
2022-10-05T02:01:44.991Z,0
2022-10-05T02:03:01.278Z,0
2022-10-05T02:04:17.569Z,0
2022-10-05T02:05:33.871Z,0
2022-10-05T02:06:50.159Z,0
2022-10-05T02:08:06.457Z,0
2022-10-05T02:09:22.742Z,0
2022-10-05T02:10:39.034Z,0
2022-10-05T02:11:54.366Z,0
2022-10-05T02:13:09.664Z,0
2022-10-05T02:14:25.965Z,0
2022-10-05T02:15:42.260Z,0
2022-10-05T02:16:58.546Z,0
2022-10-05T02:18:14.848Z,0
2022-10-05T02:19:31.135Z,0
2022-10-05T02:20:47.448Z,0
2022-10-05T02:22:03.722Z,0
2022-10-05T02:23:20.031Z,0
2022-10-05T02:24:36.317Z,0
2022-10-05T02:25:51.628Z,0
2022-10-05T02:27:06.951Z,0
2022-10-05T02:28:23.247Z,0
2022-10-05T02:29:39.538Z,0
2022-10-05T02:32:12.124Z,0
2022-10-05T02:33:28.419Z,0
2022-10-05T02:34:44.713Z,0
2022-10-05T02:36:01.016Z,0
2022-10-05T02:37:17.295Z,0
2022-10-05T02:38:33.595Z,0
2022-10-05T02:39:49.899Z,0
2022-10-05T02:41:06.182Z,0
2022-10-05T02:42:22.470Z,0
2022-10-05T02:43:37.797Z,0
2022-10-05T02:44:54.086Z,0
2022-10-05T02:46:10.376Z,0
2022-10-05T02:47:26.679Z,0
2022-10-05T02:48:42.978Z,0
2022-10-05T02:49:59.256Z,0
2022-10-05T02:51:15.549Z,0
2022-10-05T02:52:31.840Z,0
2022-10-05T02:53:48.148Z,0
2022-10-05T02:55:04.437Z,0
2022-10-05T02:56:19.759Z,0
2022-10-05T02:57:36.046Z,0
2022-10-05T02:58:52.337Z,0
2022-10-05T03:00:08.647Z,0
2022-10-05T03:01:24.927Z,0
2022-10-05T03:02:41.226Z,0
2022-10-05T03:03:57.519Z,0
2022-10-05T03:05:13.823Z,0
2022-10-05T03:06:30.118Z,0
2022-10-05T03:07:46.399Z,0
2022-10-05T03:09:02.694Z,0
2022-10-05T03:10:18.996Z,0
2022-10-05T03:11:35.285Z,0
2022-10-05T03:12:51.575Z,0
2022-10-05T03:15:23.184Z,0
2022-10-05T03:16:39.475Z,0
2022-10-05T03:19:12.070Z,0
2022-10-05T03:20:28.360Z,0
2022-10-05T03:21:44.646Z,0
2022-10-05T03:23:00.949Z,0
2022-10-05T03:24:17.253Z,0
2022-10-05T03:25:33.539Z,0
2022-10-05T03:26:49.829Z,0
2022-10-05T03:28:06.122Z,0
2022-10-05T03:29:22.429Z,0
2022-10-05T03:30:37.733Z,0
2022-10-05T03:31:54.028Z,0
2022-10-05T03:34:26.625Z,0
2022-10-05T03:35:42.905Z,0
2022-10-05T03:36:58.219Z,0
2022-10-05T03:38:13.534Z,0
2022-10-05T03:39:29.837Z,0
2022-10-05T03:40:46.134Z,0
2022-10-05T03:42:02.408Z,0
2022-10-05T03:43:18.717Z,0
2022-10-05T03:44:35.002Z,0
2022-10-05T03:45:51.299Z,0
2022-10-05T03:47:07.589Z,0
2022-10-05T03:48:23.885Z,0
2022-10-05T03:49:40.175Z,0
2022-10-05T03:50:55.487Z,0
2022-10-05T03:53:27.091Z,0
2022-10-05T03:54:43.389Z,0
2022-10-05T03:55:59.690Z,0
2022-10-05T03:57:15.980Z,0
2022-10-05T03:58:32.271Z,0
2022-10-05T03:59:48.565Z,0
2022-10-05T04:01:04.865Z,0
2022-10-05T04:02:21.168Z,0
2022-10-05T04:03:37.450Z,0
2022-10-05T04:04:53.742Z,0
2022-10-05T04:06:10.046Z,0
2022-10-05T04:07:26.348Z,0
2022-10-05T04:08:41.656Z,0
2022-10-05T04:09:57.950Z,0
2022-10-05T04:11:14.240Z,0
2022-10-05T04:12:30.539Z,0
2022-10-05T04:13:46.815Z,0
2022-10-05T04:15:03.115Z,0
2022-10-05T04:16:19.411Z,0
2022-10-05T04:17:35.706Z,0
2022-10-05T04:18:51.992Z,0
2022-10-05T04:20:08.287Z,0
2022-10-05T04:21:24.580Z,0
2022-10-05T04:22:40.887Z,0
2022-10-05T04:25:13.467Z,0
2022-10-05T04:26:29.760Z,0
2022-10-05T04:27:45.081Z,0
2022-10-05T04:29:01.365Z,0
2022-10-05T04:30:17.669Z,0
2022-10-05T04:31:33.966Z,0
2022-10-05T04:32:50.260Z,0
2022-10-05T04:34:06.548Z,0
2022-10-05T04:35:22.838Z,0
2022-10-05T04:36:39.142Z,0
2022-10-05T04:37:55.432Z,0
2022-10-05T04:39:11.717Z,0
2022-10-05T04:40:28.020Z,0
2022-10-05T04:41:44.322Z,0
2022-10-05T04:43:00.605Z,0
2022-10-05T04:44:15.866Z,0
2022-10-05T04:45:32.110Z,0
2022-10-05T04:46:48.356Z,0
2022-10-05T04:48:04.595Z,0
2022-10-05T04:49:20.836Z,0
2022-10-05T04:50:37.083Z,0
2022-10-05T04:51:53.332Z,0
2022-10-05T04:53:09.577Z,0
2022-10-05T04:54:25.801Z,0
2022-10-05T04:55:42.045Z,0
2022-10-05T04:56:58.293Z,0
2022-10-05T04:58:14.539Z,0
2022-10-05T04:59:30.772Z,0
2022-10-05T05:00:46.023Z,0
2022-10-05T05:02:02.257Z,0
2022-10-05T05:03:18.498Z,0
2022-10-05T05:04:34.744Z,0
2022-10-05T05:05:50.985Z,0
2022-10-05T05:07:07.238Z,0
2022-10-05T05:08:23.460Z,0
2022-10-05T05:09:39.710Z,0
2022-10-05T05:10:55.954Z,0
2022-10-05T05:12:12.185Z,0
2022-10-05T05:13:28.435Z,5
2022-10-05T05:14:44.676Z,5
2022-10-05T05:16:00.922Z,5
2022-10-05T05:17:16.168Z,5
2022-10-05T05:18:32.408Z,5
2022-10-05T05:21:04.895Z,11
2022-10-05T05:22:21.128Z,11
2022-10-05T05:23:37.367Z,11
2022-10-05T05:24:53.613Z,16
2022-10-05T05:26:09.858Z,16
2022-10-05T05:27:26.099Z,22
2022-10-05T05:28:42.323Z,22
2022-10-05T05:29:58.567Z,28
2022-10-05T05:31:14.811Z,28
2022-10-05T05:33:47.285Z,39
2022-10-05T05:35:02.547Z,39
2022-10-05T05:36:18.782Z,45
2022-10-05T05:37:35.024Z,45
2022-10-05T05:38:51.263Z,50
2022-10-05T05:40:07.500Z,50
2022-10-05T05:41:23.757Z,50
2022-10-05T05:42:39.993Z,56
2022-10-05T05:43:56.226Z,56
2022-10-05T05:45:12.470Z,61
2022-10-05T05:46:28.717Z,61
2022-10-05T05:47:44.952Z,61
2022-10-05T05:49:01.194Z,61
2022-10-05T05:50:17.424Z,61
2022-10-05T05:51:32.695Z,61
2022-10-05T05:52:48.927Z,61
2022-10-05T05:54:05.173Z,67
2022-10-05T05:55:21.402Z,67
2022-10-05T05:56:37.650Z,73
2022-10-05T05:57:53.884Z,73
2022-10-05T05:59:10.130Z,78
2022-10-05T06:00:26.359Z,78
2022-10-05T06:01:42.620Z,84
2022-10-05T06:02:58.842Z,84
2022-10-05T06:04:15.083Z,84
2022-10-05T06:05:31.323Z,90
2022-10-05T06:06:47.577Z,90
2022-10-05T06:08:02.825Z,90
2022-10-05T06:09:19.072Z,95
2022-10-05T06:10:35.303Z,95
2022-10-05T06:11:51.544Z,101
2022-10-05T06:13:07.792Z,101
2022-10-05T06:14:24.032Z,106
2022-10-05T06:15:40.272Z,106
2022-10-05T06:16:56.520Z,106
2022-10-05T06:18:12.758Z,112
2022-10-05T06:19:28.984Z,112
2022-10-05T06:20:45.226Z,118
2022-10-05T06:22:01.469Z,118
2022-10-05T06:23:17.705Z,118
2022-10-05T06:24:32.971Z,123
2022-10-05T06:25:49.217Z,129
2022-10-05T06:27:05.439Z,135
2022-10-05T06:28:21.693Z,140
2022-10-05T06:29:37.939Z,146
2022-10-05T06:30:54.165Z,151
2022-10-05T06:32:10.420Z,157
2022-10-05T06:33:26.657Z,163
2022-10-05T06:34:42.894Z,168
2022-10-05T06:35:59.132Z,174
2022-10-05T06:37:15.371Z,168
2022-10-05T06:38:31.605Z,168
2022-10-05T06:39:47.861Z,163
2022-10-05T06:41:03.104Z,163
2022-10-05T06:42:19.351Z,157
2022-10-05T06:43:35.590Z,163
2022-10-05T06:44:51.834Z,163
2022-10-05T06:47:24.299Z,163
2022-10-05T06:48:40.553Z,163
2022-10-05T06:49:56.778Z,163
2022-10-05T06:51:13.028Z,163
2022-10-05T06:52:29.259Z,168
2022-10-05T06:53:45.514Z,168
2022-10-05T06:55:01.749Z,168
2022-10-05T06:56:17.994Z,174
2022-10-05T06:57:33.233Z,174
2022-10-05T06:58:49.472Z,174
2022-10-05T07:00:05.716Z,174
2022-10-05T07:01:21.961Z,180
2022-10-05T07:02:38.193Z,174
2022-10-05T07:03:54.447Z,174
2022-10-05T07:05:10.681Z,174
2022-10-05T07:06:26.925Z,174
2022-10-05T07:07:43.171Z,180
2022-10-05T07:08:59.394Z,180
2022-10-05T07:10:15.630Z,191
2022-10-05T07:11:30.899Z,196
2022-10-05T07:12:47.141Z,202
2022-10-05T07:14:03.384Z,202
2022-10-05T07:15:19.622Z,208
2022-10-05T07:16:35.856Z,213
2022-10-05T07:17:52.106Z,219
2022-10-05T07:19:08.339Z,219
2022-10-05T07:20:24.572Z,219
2022-10-05T07:21:40.817Z,219
2022-10-05T07:22:57.049Z,219
2022-10-05T07:24:13.292Z,225
2022-10-05T07:25:29.536Z,230
2022-10-05T07:26:45.784Z,230
2022-10-05T07:28:01.033Z,230
2022-10-05T07:29:17.280Z,236
2022-10-05T07:30:33.508Z,236
2022-10-05T07:31:49.758Z,241
2022-10-05T07:33:06.001Z,236
2022-10-05T07:34:22.229Z,236
2022-10-05T07:35:38.482Z,236
2022-10-05T07:36:54.717Z,236
2022-10-05T07:38:10.960Z,230
2022-10-05T07:39:27.189Z,230
2022-10-05T07:40:43.430Z,230
2022-10-05T07:41:59.668Z,230
2022-10-05T07:43:15.903Z,230
2022-10-05T07:44:31.157Z,225
2022-10-05T07:45:47.397Z,225
2022-10-05T07:47:03.652Z,219
2022-10-05T07:48:19.890Z,219
2022-10-05T07:49:36.129Z,219
2022-10-05T07:50:52.367Z,225
2022-10-05T07:52:08.597Z,225
2022-10-05T07:53:24.837Z,230
2022-10-05T07:54:41.077Z,236
2022-10-05T07:55:57.323Z,241
2022-10-05T07:57:13.555Z,241
2022-10-05T07:58:29.798Z,241
2022-10-05T08:01:02.275Z,236
2022-10-05T08:02:18.513Z,236
2022-10-05T08:03:33.784Z,236
2022-10-05T08:04:50.019Z,236
2022-10-05T08:06:06.265Z,236
2022-10-05T08:07:22.492Z,236
2022-10-05T08:08:38.742Z,241
2022-10-05T08:09:54.977Z,241
2022-10-05T08:11:11.219Z,241
2022-10-05T08:12:27.460Z,247
2022-10-05T08:13:43.688Z,247
2022-10-05T08:14:59.931Z,247
2022-10-05T08:16:16.182Z,253
2022-10-05T08:17:32.420Z,258
2022-10-05T08:18:48.660Z,258
2022-10-05T08:20:03.915Z,270
2022-10-05T08:21:20.155Z,275
2022-10-05T08:22:36.380Z,281
2022-10-05T08:23:52.632Z,275
2022-10-05T08:25:08.864Z,270
2022-10-05T08:26:25.107Z,258
2022-10-05T08:27:41.341Z,253
2022-10-05T08:28:57.584Z,253
2022-10-05T08:30:13.825Z,253
2022-10-05T08:31:30.078Z,258
2022-10-05T08:32:46.317Z,258
2022-10-05T08:34:02.544Z,258
2022-10-05T08:35:18.787Z,241
2022-10-05T08:36:34.045Z,236
2022-10-05T08:37:50.294Z,219
2022-10-05T08:39:06.527Z,213
2022-10-05T08:40:22.761Z,208
2022-10-05T08:41:39.001Z,202
2022-10-05T08:42:55.235Z,202
2022-10-05T08:44:11.478Z,208
2022-10-05T08:46:43.957Z,213
2022-10-05T08:48:00.208Z,219
2022-10-05T08:49:16.449Z,225
2022-10-05T08:50:32.673Z,230
2022-10-05T08:51:48.919Z,236
2022-10-05T08:53:05.159Z,241
2022-10-05T08:54:20.428Z,247
2022-10-05T08:55:36.654Z,258
2022-10-05T08:56:52.907Z,270
2022-10-05T08:58:09.136Z,275
2022-10-05T08:59:25.371Z,281
2022-10-05T09:00:41.611Z,292
2022-10-05T09:01:57.860Z,298
2022-10-05T09:03:14.091Z,298
2022-10-05T09:04:30.327Z,298
2022-10-05T09:05:46.579Z,292
2022-10-05T09:07:02.808Z,286
2022-10-05T09:08:19.056Z,275
2022-10-05T09:09:35.297Z,264
2022-10-05T09:10:50.558Z,253
2022-10-05T09:12:06.782Z,236
2022-10-05T09:13:23.024Z,225
2022-10-05T09:14:39.259Z,213
2022-10-05T09:15:55.501Z,196
2022-10-05T09:18:27.990Z,185
2022-10-05T09:19:44.227Z,180
2022-10-05T09:21:00.471Z,180
2022-10-05T09:22:16.717Z,174
2022-10-05T09:23:32.949Z,174
2022-10-05T09:24:49.190Z,174
2022-10-05T09:26:05.417Z,168
2022-10-05T09:27:20.677Z,168
2022-10-05T09:28:36.929Z,168
2022-10-05T09:31:09.410Z,174
2022-10-05T09:32:25.635Z,174
2022-10-05T09:34:58.115Z,185
2022-10-05T09:36:13.380Z,185
2022-10-05T09:37:28.647Z,185
2022-10-05T09:40:01.113Z,191
2022-10-05T09:41:17.347Z,191
2022-10-05T09:42:33.605Z,191
2022-10-05T09:43:49.825Z,185
2022-10-05T09:45:06.068Z,185
2022-10-05T09:46:22.307Z,180
2022-10-05T09:47:38.554Z,174
2022-10-05T09:48:54.794Z,174
2022-10-05T09:50:11.036Z,174
2022-10-05T09:51:27.282Z,180
2022-10-05T09:52:43.511Z,180
2022-10-05T09:53:58.772Z,180
2022-10-05T09:55:15.013Z,174
2022-10-05T09:56:31.246Z,174
2022-10-05T09:57:47.487Z,174
2022-10-05T09:59:03.723Z,174
2022-10-05T10:00:19.976Z,168
2022-10-05T10:01:36.200Z,168
2022-10-05T10:02:52.450Z,168
2022-10-05T10:04:07.710Z,168
2022-10-05T10:05:22.957Z,168
2022-10-05T10:06:39.202Z,180
2022-10-05T10:09:11.687Z,180
2022-10-05T10:10:27.912Z,185
2022-10-05T10:11:44.157Z,185
2022-10-05T10:13:00.405Z,191
2022-10-05T10:14:16.645Z,191
2022-10-05T10:15:32.884Z,191
2022-10-05T10:16:49.126Z,196
2022-10-05T10:18:05.356Z,196
2022-10-05T10:19:21.604Z,196
2022-10-05T10:20:37.839Z,196
2022-10-05T10:21:54.070Z,196
2022-10-05T10:23:09.336Z,196
2022-10-05T10:25:41.813Z,196
2022-10-05T10:28:13.306Z,196
2022-10-05T10:29:28.570Z,196
2022-10-05T10:30:43.838Z,196
2022-10-05T10:32:00.072Z,202
2022-10-05T10:33:16.317Z,191
2022-10-05T10:34:32.559Z,185
2022-10-05T10:35:48.795Z,185
2022-10-05T10:37:05.037Z,191
2022-10-05T10:38:21.276Z,191
2022-10-05T10:40:53.742Z,202
2022-10-05T10:42:09.990Z,213
2022-10-05T10:43:26.221Z,219
2022-10-05T10:44:42.469Z,230
2022-10-05T10:45:58.702Z,236
2022-10-05T10:47:13.970Z,241
2022-10-05T10:48:30.204Z,253
2022-10-05T10:49:46.442Z,270
2022-10-05T10:51:02.680Z,281
2022-10-05T10:52:18.930Z,298
2022-10-05T10:53:35.165Z,303
2022-10-05T10:54:51.393Z,298
2022-10-05T10:56:07.639Z,292
2022-10-05T10:57:22.911Z,286
2022-10-05T10:58:38.165Z,275
2022-10-05T10:59:54.403Z,258
2022-10-05T11:01:10.641Z,258
2022-10-05T11:02:26.869Z,253
2022-10-05T11:03:43.114Z,253
2022-10-05T11:04:59.351Z,258
2022-10-05T11:06:15.595Z,270
2022-10-05T11:07:31.830Z,281
2022-10-05T11:08:48.079Z,298
2022-10-05T11:10:04.321Z,309
2022-10-05T11:12:36.804Z,343
2022-10-05T11:13:53.037Z,354
2022-10-05T11:15:08.288Z,365
2022-10-05T11:16:24.529Z,376
2022-10-05T11:17:40.763Z,371
2022-10-05T11:18:57.003Z,365
2022-10-05T11:20:13.246Z,365
2022-10-05T11:21:29.480Z,365
2022-10-05T11:22:45.738Z,360
2022-10-05T11:24:01.965Z,365
2022-10-05T11:25:18.216Z,360
2022-10-05T11:26:33.475Z,360
2022-10-05T11:27:49.702Z,360
2022-10-05T11:29:05.940Z,360
2022-10-05T11:30:22.188Z,354
2022-10-05T11:31:38.420Z,348
2022-10-05T11:32:54.663Z,343
2022-10-05T11:34:10.907Z,343
2022-10-05T11:35:27.144Z,337
2022-10-05T11:36:43.393Z,326
2022-10-05T11:37:59.618Z,320
2022-10-05T11:39:15.859Z,309
2022-10-05T11:40:32.099Z,309
2022-10-05T11:41:48.356Z,298
2022-10-05T11:43:04.589Z,292
2022-10-05T11:44:19.846Z,286
2022-10-05T11:45:36.076Z,286
2022-10-05T11:46:52.313Z,275
2022-10-05T11:48:08.567Z,270
2022-10-05T11:49:24.793Z,264
2022-10-05T11:50:41.032Z,264
2022-10-05T11:51:57.272Z,258
2022-10-05T11:53:13.523Z,258
2022-10-05T11:55:46.007Z,247
2022-10-05T11:57:02.250Z,241
2022-10-05T11:58:18.486Z,241
2022-10-05T11:59:34.717Z,236
2022-10-05T12:02:06.226Z,236
2022-10-05T12:04:38.000Z,230
2022-10-05T12:05:54.933Z,225
2022-10-05T12:07:10.203Z,225
2022-10-05T12:08:25.454Z,219
2022-10-05T12:09:41.698Z,219
2022-10-05T12:10:57.926Z,213
2022-10-05T12:12:14.182Z,213
2022-10-05T12:13:30.404Z,208
2022-10-05T12:14:46.652Z,208
2022-10-05T12:17:19.140Z,202
2022-10-05T12:19:51.622Z,196
2022-10-05T12:21:07.861Z,191
2022-10-05T12:22:24.086Z,191
2022-10-05T12:23:39.347Z,185
2022-10-05T12:24:54.599Z,185
2022-10-05T12:26:10.851Z,180
2022-10-05T12:27:27.086Z,174
2022-10-05T12:28:43.331Z,174
2022-10-05T12:31:15.798Z,168
2022-10-05T12:32:32.040Z,163
2022-10-05T12:33:48.284Z,163
2022-10-05T12:35:04.522Z,163
2022-10-05T12:36:20.767Z,157
2022-10-05T12:37:37.010Z,157
2022-10-05T12:38:53.237Z,157
2022-10-05T12:40:09.478Z,157
2022-10-05T12:41:24.739Z,157
2022-10-05T12:42:40.976Z,157
2022-10-05T12:43:57.230Z,157
2022-10-05T12:45:13.449Z,151
2022-10-05T12:46:29.695Z,151
2022-10-05T12:47:45.946Z,151
2022-10-05T12:49:02.182Z,151
2022-10-05T12:50:18.426Z,151
2022-10-05T12:51:33.679Z,151
2022-10-05T12:54:05.166Z,151
2022-10-05T12:55:21.410Z,146
2022-10-05T12:56:37.648Z,146
2022-10-05T12:57:53.900Z,146
2022-10-05T12:59:10.129Z,146
2022-10-05T13:00:26.364Z,146
2022-10-05T13:01:42.613Z,146
2022-10-05T13:02:58.858Z,151
2022-10-05T13:04:15.088Z,151
2022-10-05T13:05:31.344Z,151
2022-10-05T13:06:47.578Z,151
2022-10-05T13:08:02.829Z,151
2022-10-05T13:09:18.100Z,151
2022-10-05T13:10:34.339Z,151
2022-10-05T13:11:50.568Z,151
2022-10-05T13:13:06.807Z,151
2022-10-05T13:14:23.046Z,151
2022-10-05T13:15:39.297Z,151
2022-10-05T13:16:55.518Z,146
2022-10-05T13:18:11.765Z,146
2022-10-05T13:19:28.013Z,146
2022-10-05T13:20:44.252Z,146
2022-10-05T13:22:00.491Z,146
2022-10-05T13:23:16.730Z,146
2022-10-05T13:24:32.975Z,146
2022-10-05T13:25:48.229Z,146
2022-10-05T13:27:04.466Z,151
2022-10-05T13:28:20.695Z,151
2022-10-05T13:29:36.938Z,146
2022-10-05T13:30:53.183Z,146
2022-10-05T13:32:09.425Z,146
2022-10-05T13:35:58.142Z,146
2022-10-05T13:37:14.387Z,146
2022-10-05T13:38:30.617Z,146
2022-10-05T13:39:46.865Z,146
2022-10-05T13:41:03.099Z,146
2022-10-05T13:42:19.349Z,146
2022-10-05T13:43:34.589Z,146
2022-10-05T13:44:50.828Z,146
2022-10-05T13:46:07.081Z,146
2022-10-05T13:47:23.316Z,146
2022-10-05T13:51:12.031Z,140
2022-10-05T13:52:27.298Z,140
2022-10-05T13:53:42.542Z,140
2022-10-05T13:54:58.792Z,135
2022-10-05T13:56:15.022Z,135
2022-10-05T13:57:31.267Z,129
2022-10-05T13:58:47.507Z,129
2022-10-05T14:01:19.982Z,135
2022-10-05T14:02:36.221Z,135
2022-10-05T14:03:52.475Z,135
2022-10-05T14:05:08.697Z,135
2022-10-05T14:06:24.943Z,135
2022-10-05T14:07:41.180Z,135
2022-10-05T14:08:57.431Z,135
2022-10-05T14:10:13.662Z,135
2022-10-05T14:11:28.922Z,135
2022-10-05T14:12:45.168Z,135
2022-10-05T14:14:01.407Z,135
2022-10-05T14:15:17.635Z,135
2022-10-05T14:16:33.881Z,129
2022-10-05T14:17:50.127Z,129
2022-10-05T14:19:06.367Z,129
2022-10-05T14:20:21.624Z,129
2022-10-05T14:21:36.873Z,129
2022-10-05T14:22:53.112Z,129
2022-10-05T14:24:09.365Z,129
2022-10-05T14:25:25.587Z,123
2022-10-05T14:26:41.843Z,123
2022-10-05T14:27:58.068Z,118
2022-10-05T14:29:14.315Z,123
2022-10-05T14:30:30.549Z,123
2022-10-05T14:31:46.794Z,123
2022-10-05T14:33:03.039Z,123
2022-10-05T14:34:19.268Z,123
2022-10-05T14:35:35.526Z,123
2022-10-05T14:36:51.746Z,123
2022-10-05T14:38:07.992Z,123
2022-10-05T14:39:23.257Z,123
2022-10-05T14:40:39.500Z,123
2022-10-05T14:41:55.739Z,123
2022-10-05T14:43:11.962Z,123
2022-10-05T14:44:28.211Z,123
2022-10-05T14:45:44.441Z,123
2022-10-05T14:47:00.697Z,123
2022-10-05T14:48:16.922Z,123
2022-10-05T14:49:33.175Z,123
2022-10-05T14:50:49.411Z,123
2022-10-05T14:52:05.653Z,123
2022-10-05T14:53:21.878Z,123
2022-10-05T14:54:38.130Z,123
2022-10-05T14:55:53.383Z,123
2022-10-05T14:57:09.629Z,123
2022-10-05T14:58:25.853Z,129
2022-10-05T14:59:42.098Z,129
2022-10-05T15:00:58.345Z,129
2022-10-05T15:02:14.581Z,129
2022-10-05T15:03:30.828Z,129
2022-10-05T15:04:47.056Z,129
2022-10-05T15:06:03.292Z,129
2022-10-05T15:07:19.545Z,129
2022-10-05T15:08:35.787Z,135
2022-10-05T15:09:52.020Z,135
2022-10-05T15:11:08.265Z,135
2022-10-05T15:12:23.520Z,135
2022-10-05T15:14:55.993Z,140
2022-10-05T15:16:12.235Z,140
2022-10-05T15:17:28.471Z,140
2022-10-05T15:18:44.706Z,140
2022-10-05T15:20:00.961Z,140
2022-10-05T15:21:17.184Z,146
2022-10-05T15:22:33.426Z,146
2022-10-05T15:23:49.664Z,146
2022-10-05T15:25:05.916Z,146
2022-10-05T15:26:22.161Z,146
2022-10-05T15:27:38.387Z,146
2022-10-05T15:30:10.875Z,146
2022-10-05T15:31:26.126Z,146
2022-10-05T15:32:42.366Z,140
2022-10-05T15:33:58.617Z,140
2022-10-05T15:35:14.858Z,140
2022-10-05T15:36:31.089Z,135
2022-10-05T15:37:47.324Z,135
2022-10-05T15:39:03.570Z,129
2022-10-05T15:40:19.814Z,129
2022-10-05T15:41:36.046Z,123
2022-10-05T15:42:51.310Z,123
2022-10-05T15:44:07.555Z,118
2022-10-05T15:45:23.793Z,118
2022-10-05T15:47:56.276Z,106
2022-10-05T15:49:12.499Z,106
2022-10-05T15:50:28.749Z,101
2022-10-05T15:51:44.977Z,101
2022-10-05T15:53:01.233Z,95
2022-10-05T15:54:17.461Z,95
2022-10-05T15:55:33.714Z,90
2022-10-05T15:56:49.937Z,84
2022-10-05T15:58:06.176Z,78
2022-10-05T15:59:21.449Z,78
2022-10-05T16:00:37.675Z,73
2022-10-05T16:01:53.915Z,67
2022-10-05T16:03:10.153Z,67
2022-10-05T16:04:26.395Z,61
2022-10-05T16:05:42.647Z,61
2022-10-05T16:06:58.868Z,61
2022-10-05T16:08:15.119Z,56
2022-10-05T16:09:31.349Z,56
2022-10-05T16:10:47.606Z,50
2022-10-05T16:12:03.843Z,50
2022-10-05T16:13:20.074Z,45
2022-10-05T16:15:52.566Z,39
2022-10-05T16:17:07.815Z,39
2022-10-05T16:18:24.044Z,39
2022-10-05T16:19:40.284Z,33
2022-10-05T16:20:56.000Z,33
2022-10-05T16:22:12.763Z,33
2022-10-05T16:23:29.008Z,33
2022-10-05T16:24:45.248Z,28
2022-10-05T16:26:01.486Z,28
2022-10-05T16:27:17.734Z,22
2022-10-05T16:28:33.971Z,22
2022-10-05T16:29:50.203Z,22
2022-10-05T16:31:06.452Z,22
2022-10-05T16:32:22.694Z,16
2022-10-05T16:33:37.946Z,16
2022-10-05T16:34:54.191Z,11
2022-10-05T16:36:10.426Z,11
2022-10-05T16:37:26.658Z,11
2022-10-05T16:38:42.897Z,11
2022-10-05T16:39:59.136Z,5
2022-10-05T16:42:31.624Z,5
2022-10-05T16:43:47.871Z,5
2022-10-05T16:45:04.106Z,5
2022-10-05T16:46:20.341Z,5
2022-10-05T16:47:36.578Z,5
2022-10-05T16:48:52.824Z,0
2022-10-05T16:50:08.083Z,0
2022-10-05T16:51:24.327Z,0
2022-10-05T16:52:40.548Z,0
2022-10-05T16:53:56.793Z,0
2022-10-05T16:55:13.045Z,0
2022-10-05T16:56:29.271Z,0
2022-10-05T16:59:01.752Z,0
2022-10-05T17:00:18.004Z,0
2022-10-05T17:01:34.239Z,0
2022-10-05T17:02:50.468Z,0
2022-10-05T17:04:06.713Z,0
2022-10-05T17:05:22.964Z,0
2022-10-05T17:06:38.208Z,0
2022-10-05T17:07:54.444Z,0
2022-10-05T17:09:10.691Z,0
2022-10-05T17:10:26.924Z,0
2022-10-05T17:11:43.170Z,0
2022-10-05T17:12:59.411Z,0
2022-10-05T17:14:15.649Z,0
2022-10-05T17:15:31.888Z,0
2022-10-05T17:16:48.127Z,0
2022-10-05T17:18:04.417Z,0
2022-10-05T17:19:20.726Z,0
2022-10-05T17:20:37.004Z,0
2022-10-05T17:21:53.303Z,0
2022-10-05T17:23:08.617Z,0
2022-10-05T17:24:24.899Z,0
2022-10-05T17:25:41.206Z,0
2022-10-05T17:26:57.502Z,0
2022-10-05T17:28:13.784Z,0
2022-10-05T17:29:30.091Z,0
2022-10-05T17:30:46.380Z,0
2022-10-05T17:32:02.680Z,0
2022-10-05T17:33:18.955Z,0
2022-10-05T17:34:35.249Z,0
2022-10-05T17:35:51.561Z,0
2022-10-05T17:37:07.854Z,0
2022-10-05T17:38:24.140Z,0
2022-10-05T17:39:39.459Z,0
2022-10-05T17:40:55.733Z,0
2022-10-05T17:42:12.034Z,0
2022-10-05T17:43:28.329Z,0
2022-10-05T17:44:44.630Z,0
2022-10-05T17:46:00.913Z,0
2022-10-05T17:47:17.210Z,0
2022-10-05T17:48:33.495Z,0
2022-10-05T17:49:49.804Z,0
2022-10-05T17:51:06.099Z,0
2022-10-05T17:52:22.392Z,0
2022-10-05T17:53:38.688Z,0
2022-10-05T17:54:54.977Z,0
2022-10-05T17:56:10.289Z,0
2022-10-05T17:57:26.571Z,0
2022-10-05T17:58:42.858Z,0
2022-10-05T17:59:59.171Z,0
2022-10-05T18:02:31.758Z,0
2022-10-05T18:03:48.045Z,0
2022-10-05T18:05:04.340Z,0
2022-10-05T18:06:20.634Z,0
2022-10-05T18:07:36.932Z,0
2022-10-05T18:11:25.805Z,0
2022-10-05T18:12:41.117Z,0
2022-10-05T18:13:57.412Z,0
2022-10-05T18:15:12.731Z,0
2022-10-05T18:16:29.021Z,0
2022-10-05T18:17:45.315Z,0
2022-10-05T18:19:01.594Z,0
2022-10-05T18:20:17.894Z,0
2022-10-05T18:21:34.188Z,0
2022-10-05T18:22:50.491Z,0
2022-10-05T18:24:06.779Z,0
2022-10-05T18:25:23.063Z,0
2022-10-05T18:26:39.357Z,0
2022-10-05T18:27:54.684Z,0
2022-10-05T18:29:09.989Z,0
2022-10-05T18:30:26.288Z,0
2022-10-05T18:32:58.874Z,0
2022-10-05T18:34:15.165Z,0
2022-10-05T18:35:31.461Z,0
2022-10-05T18:36:47.749Z,0
2022-10-05T18:38:04.046Z,0
2022-10-05T18:39:20.345Z,0
2022-10-05T18:40:36.625Z,0
2022-10-05T18:41:52.930Z,0
2022-10-05T18:43:09.220Z,0
2022-10-05T18:44:25.502Z,0
2022-10-05T18:45:40.823Z,0
2022-10-05T18:48:13.414Z,0
2022-10-05T18:49:29.702Z,0
2022-10-05T18:50:45.028Z,0
2022-10-05T18:52:01.305Z,0
2022-10-05T18:53:16.614Z,0
2022-10-05T18:54:32.915Z,0
2022-10-05T18:55:49.197Z,0
2022-10-05T18:57:05.493Z,0
2022-10-05T18:58:21.788Z,0
2022-10-05T18:59:38.081Z,0
2022-10-05T19:00:54.390Z,0
2022-10-05T19:03:26.979Z,0
2022-10-05T19:04:43.255Z,0
2022-10-05T19:05:59.567Z,0
2022-10-05T19:07:15.849Z,0
2022-10-05T19:08:32.141Z,0